sensor_id;sensor_type;location;lat;lon;timestamp;noise_LAeq;noise_LA_min;noise_LA_max;noise_LA01;noise_LA95
17594;Laerm;8916;47.086;15.920;2024-03-02T00:02:06;49.13;48.10;50.33;;
17594;Laerm;8916;47.086;15.920;2024-03-02T00:04:35;49.14;48.05;50.32;;
17594;Laerm;8916;47.086;15.920;2024-03-02T00:07:06;49.12;47.93;50.23;;
17594;Laerm;8916;47.086;15.920;2024-03-02T00:09:35;49.13;48.18;50.59;;
17594;Laerm;8916;47.086;15.920;2024-03-02T00:12:05;49.12;48.03;50.23;;
17594;Laerm;8916;47.086;15.920;2024-03-02T00:14:34;49.12;47.96;50.38;;
17594;Laerm;8916;47.086;15.920;2024-03-02T00:17:03;49.11;47.84;50.31;;
17594;Laerm;8916;47.086;15.920;2024-03-02T00:19:38;49.12;47.91;50.20;;
17594;Laerm;8916;47.086;15.920;2024-03-02T00:22:08;49.12;47.98;50.37;;
17594;Laerm;8916;47.086;15.920;2024-03-02T00:24:37;49.12;48.02;50.39;;
17594;Laerm;8916;47.086;15.920;2024-03-02T00:27:07;49.11;48.00;50.24;;
17594;Laerm;8916;47.086;15.920;2024-03-02T00:29:40;49.11;48.12;50.41;;
17594;Laerm;8916;47.086;15.920;2024-03-02T00:32:13;49.12;48.07;50.39;;
17594;Laerm;8916;47.086;15.920;2024-03-02T00:34:45;49.12;48.03;50.28;;
17594;Laerm;8916;47.086;15.920;2024-03-02T00:37:14;49.12;48.00;50.26;;
17594;Laerm;8916;47.086;15.920;2024-03-02T00:39:43;49.12;48.07;50.08;;
17594;Laerm;8916;47.086;15.920;2024-03-02T00:42:12;49.11;48.07;50.25;;
17594;Laerm;8916;47.086;15.920;2024-03-02T00:44:41;49.12;47.90;50.14;;
17594;Laerm;8916;47.086;15.920;2024-03-02T00:47:10;49.11;48.03;50.45;;
17594;Laerm;8916;47.086;15.920;2024-03-02T00:49:39;49.11;48.03;50.22;;
17594;Laerm;8916;47.086;15.920;2024-03-02T00:52:10;49.11;47.83;50.44;;
17594;Laerm;8916;47.086;15.920;2024-03-02T00:54:40;49.11;47.83;50.43;;
17594;Laerm;8916;47.086;15.920;2024-03-02T00:57:13;49.12;48.03;51.48;;
17594;Laerm;8916;47.086;15.920;2024-03-02T00:59:42;49.11;48.10;50.41;;
17594;Laerm;8916;47.086;15.920;2024-03-02T01:02:13;49.11;47.90;50.35;;
17594;Laerm;8916;47.086;15.920;2024-03-02T01:04:43;49.12;48.08;50.46;;
17594;Laerm;8916;47.086;15.920;2024-03-02T01:07:14;49.12;48.02;50.32;;
17594;Laerm;8916;47.086;15.920;2024-03-02T01:09:43;49.12;48.02;50.17;;
17594;Laerm;8916;47.086;15.920;2024-03-02T01:12:12;49.12;47.93;50.29;;
17594;Laerm;8916;47.086;15.920;2024-03-02T01:14:42;49.12;48.02;50.26;;
17594;Laerm;8916;47.086;15.920;2024-03-02T01:17:11;49.12;48.13;50.42;;
17594;Laerm;8916;47.086;15.920;2024-03-02T01:19:41;49.12;48.05;50.84;;
17594;Laerm;8916;47.086;15.920;2024-03-02T01:22:11;49.12;48.00;50.26;;
17594;Laerm;8916;47.086;15.920;2024-03-02T01:24:42;49.12;48.21;50.44;;
17594;Laerm;8916;47.086;15.920;2024-03-02T01:27:11;49.12;48.02;50.15;;
17594;Laerm;8916;47.086;15.920;2024-03-02T01:29:40;49.13;48.05;50.64;;
17594;Laerm;8916;47.086;15.920;2024-03-02T01:32:09;49.12;48.02;50.38;;
17594;Laerm;8916;47.086;15.920;2024-03-02T01:34:39;49.12;47.83;50.16;;
17594;Laerm;8916;47.086;15.920;2024-03-02T01:37:08;49.12;47.91;50.26;;
17594;Laerm;8916;47.086;15.920;2024-03-02T01:39:38;49.13;48.08;50.23;;
17594;Laerm;8916;47.086;15.920;2024-03-02T01:42:09;49.12;47.98;50.55;;
17594;Laerm;8916;47.086;15.920;2024-03-02T01:44:39;49.13;47.88;50.22;;
17594;Laerm;8916;47.086;15.920;2024-03-02T01:47:09;49.12;48.02;50.13;;
17594;Laerm;8916;47.086;15.920;2024-03-02T01:49:38;49.13;47.95;50.36;;
17594;Laerm;8916;47.086;15.920;2024-03-02T01:52:08;49.12;48.02;50.31;;
17594;Laerm;8916;47.086;15.920;2024-03-02T01:54:38;49.13;48.07;50.39;;
17594;Laerm;8916;47.086;15.920;2024-03-02T01:57:09;49.12;47.93;50.25;;
17594;Laerm;8916;47.086;15.920;2024-03-02T01:59:38;49.13;47.81;50.38;;
17594;Laerm;8916;47.086;15.920;2024-03-02T02:02:07;49.12;47.90;50.39;;
17594;Laerm;8916;47.086;15.920;2024-03-02T02:04:36;49.12;47.88;50.12;;
17594;Laerm;8916;47.086;15.920;2024-03-02T02:07:05;49.13;47.86;50.24;;
17594;Laerm;8916;47.086;15.920;2024-03-02T02:09:35;49.12;47.83;50.38;;
17594;Laerm;8916;47.086;15.920;2024-03-02T02:12:05;49.12;48.03;50.15;;
17594;Laerm;8916;47.086;15.920;2024-03-02T02:14:36;49.12;48.10;50.43;;
17594;Laerm;8916;47.086;15.920;2024-03-02T02:17:07;49.13;48.03;50.21;;
17594;Laerm;8916;47.086;15.920;2024-03-02T02:19:36;49.12;48.19;50.18;;
17594;Laerm;8916;47.086;15.920;2024-03-02T02:22:07;49.13;48.08;50.38;;
17594;Laerm;8916;47.086;15.920;2024-03-02T02:24:36;49.13;47.93;50.19;;
17594;Laerm;8916;47.086;15.920;2024-03-02T02:27:08;49.14;48.08;50.22;;
17594;Laerm;8916;47.086;15.920;2024-03-02T02:29:37;49.13;47.93;50.30;;
17594;Laerm;8916;47.086;15.920;2024-03-02T02:32:07;49.13;48.00;50.12;;
17594;Laerm;8916;47.086;15.920;2024-03-02T02:34:36;49.13;48.08;50.56;;
17594;Laerm;8916;47.086;15.920;2024-03-02T02:37:06;49.13;47.70;50.44;;
17594;Laerm;8916;47.086;15.920;2024-03-02T02:39:36;49.13;48.05;50.41;;
17594;Laerm;8916;47.086;15.920;2024-03-02T02:42:05;49.14;48.16;50.33;;
17594;Laerm;8916;47.086;15.920;2024-03-02T02:44:34;49.14;47.90;50.23;;
17594;Laerm;8916;47.086;15.920;2024-03-02T02:47:03;49.14;48.02;50.14;;
17594;Laerm;8916;47.086;15.920;2024-03-02T02:49:33;49.14;48.12;50.30;;
17594;Laerm;8916;47.086;15.920;2024-03-02T02:52:02;49.15;47.91;50.24;;
17594;Laerm;8916;47.086;15.920;2024-03-02T02:54:32;49.14;48.01;50.37;;
17594;Laerm;8916;47.086;15.920;2024-03-02T02:57:01;49.14;48.08;50.44;;
17594;Laerm;8916;47.086;15.920;2024-03-02T02:59:31;49.14;48.00;50.45;;
17594;Laerm;8916;47.086;15.920;2024-03-02T03:02:00;49.15;48.12;50.28;;
17594;Laerm;8916;47.086;15.920;2024-03-02T03:04:29;49.16;48.12;50.29;;
17594;Laerm;8916;47.086;15.920;2024-03-02T03:06:58;49.15;48.13;50.48;;
17594;Laerm;8916;47.086;15.920;2024-03-02T03:09:27;49.16;48.10;50.15;;
17594;Laerm;8916;47.086;15.920;2024-03-02T03:11:58;49.15;48.10;50.27;;
17594;Laerm;8916;47.086;15.920;2024-03-02T03:14:27;49.15;48.08;50.30;;
17594;Laerm;8916;47.086;15.920;2024-03-02T03:16:56;49.15;47.96;50.33;;
17594;Laerm;8916;47.086;15.920;2024-03-02T03:19:25;49.14;48.05;50.28;;
17594;Laerm;8916;47.086;15.920;2024-03-02T03:21:54;49.15;48.07;50.24;;
17594;Laerm;8916;47.086;15.920;2024-03-02T03:24:23;49.15;48.05;50.24;;
17594;Laerm;8916;47.086;15.920;2024-03-02T03:26:52;49.15;47.96;50.54;;
17594;Laerm;8916;47.086;15.920;2024-03-02T03:29:22;49.15;48.21;50.34;;
17594;Laerm;8916;47.086;15.920;2024-03-02T03:31:51;49.15;48.02;50.35;;
17594;Laerm;8916;47.086;15.920;2024-03-02T03:34:20;49.14;47.96;50.31;;
17594;Laerm;8916;47.086;15.920;2024-03-02T03:36:50;49.15;48.05;50.24;;
17594;Laerm;8916;47.086;15.920;2024-03-02T03:39:19;49.14;47.96;50.21;;
17594;Laerm;8916;47.086;15.920;2024-03-02T03:41:48;49.15;48.12;50.33;;
17594;Laerm;8916;47.086;15.920;2024-03-02T03:44:17;49.16;48.00;50.41;;
17594;Laerm;8916;47.086;15.920;2024-03-02T03:46:47;49.15;47.79;50.49;;
17594;Laerm;8916;47.086;15.920;2024-03-02T03:49:16;49.15;48.18;50.33;;
17594;Laerm;8916;47.086;15.920;2024-03-02T03:51:46;49.15;48.16;50.45;;
17594;Laerm;8916;47.086;15.920;2024-03-02T03:54:15;49.14;47.98;50.52;;
17594;Laerm;8916;47.086;15.920;2024-03-02T03:56:44;49.15;48.00;50.28;;
17594;Laerm;8916;47.086;15.920;2024-03-02T03:59:13;49.16;48.10;50.37;;
17594;Laerm;8916;47.086;15.920;2024-03-02T04:01:42;49.15;47.96;50.34;;
17594;Laerm;8916;47.086;15.920;2024-03-02T04:04:13;49.16;48.21;50.43;;
17594;Laerm;8916;47.086;15.920;2024-03-02T04:06:42;49.17;48.05;50.58;;
17594;Laerm;8916;47.086;15.920;2024-03-02T04:09:12;49.16;48.12;50.35;;
17594;Laerm;8916;47.086;15.920;2024-03-02T04:11:41;49.17;48.12;50.22;;
17594;Laerm;8916;47.086;15.920;2024-03-02T04:14:10;49.16;48.00;50.27;;
17594;Laerm;8916;47.086;15.920;2024-03-02T04:16:40;49.16;47.84;50.28;;
17594;Laerm;8916;47.086;15.920;2024-03-02T04:19:09;49.16;47.76;50.32;;
17594;Laerm;8916;47.086;15.920;2024-03-02T04:21:39;49.15;48.08;50.40;;
17594;Laerm;8916;47.086;15.920;2024-03-02T04:24:08;49.16;47.90;50.79;;
17594;Laerm;8916;47.086;15.920;2024-03-02T04:26:37;49.16;48.13;50.19;;
17594;Laerm;8916;47.086;15.920;2024-03-02T04:29:07;49.16;48.00;50.34;;
17594;Laerm;8916;47.086;15.920;2024-03-02T04:31:36;49.15;48.07;50.25;;
17594;Laerm;8916;47.086;15.920;2024-03-02T04:34:05;49.15;48.10;50.58;;
17594;Laerm;8916;47.086;15.920;2024-03-02T04:36:34;49.15;48.08;50.36;;
17594;Laerm;8916;47.086;15.920;2024-03-02T04:39:04;49.16;47.91;50.18;;
17594;Laerm;8916;47.086;15.920;2024-03-02T04:41:37;49.14;48.13;50.22;;
17594;Laerm;8916;47.086;15.920;2024-03-02T04:44:06;49.15;48.00;50.37;;
17594;Laerm;8916;47.086;15.920;2024-03-02T04:46:35;49.15;48.13;50.29;;
17594;Laerm;8916;47.086;15.920;2024-03-02T04:49:04;49.15;48.08;50.44;;
17594;Laerm;8916;47.086;15.920;2024-03-02T04:51:36;49.17;48.12;50.34;;
17594;Laerm;8916;47.086;15.920;2024-03-02T04:54:07;49.16;47.93;50.27;;
17594;Laerm;8916;47.086;15.920;2024-03-02T04:56:36;49.16;48.08;50.38;;
17594;Laerm;8916;47.086;15.920;2024-03-02T04:59:12;49.16;48.03;50.29;;
17594;Laerm;8916;47.086;15.920;2024-03-02T05:01:41;49.16;48.16;50.36;;
17594;Laerm;8916;47.086;15.920;2024-03-02T05:04:10;49.16;48.08;50.19;;
17594;Laerm;8916;47.086;15.920;2024-03-02T05:06:40;49.16;47.98;50.21;;
17594;Laerm;8916;47.086;15.920;2024-03-02T05:09:11;49.17;48.18;50.59;;
17594;Laerm;8916;47.086;15.920;2024-03-02T05:11:40;49.17;47.93;50.37;;
17594;Laerm;8916;47.086;15.920;2024-03-02T05:14:26;49.17;47.90;50.43;;
17594;Laerm;8916;47.086;15.920;2024-03-02T05:16:56;49.19;47.86;50.29;;
17594;Laerm;8916;47.086;15.920;2024-03-02T05:19:25;49.18;47.95;50.29;;
17594;Laerm;8916;47.086;15.920;2024-03-02T05:21:54;49.19;48.02;50.20;;
17594;Laerm;8916;47.086;15.920;2024-03-02T05:24:25;49.19;48.12;50.15;;
17594;Laerm;8916;47.086;15.920;2024-03-02T05:26:56;49.18;47.86;50.36;;
17594;Laerm;8916;47.086;15.920;2024-03-02T05:29:25;49.19;48.16;50.53;;
17594;Laerm;8916;47.086;15.920;2024-03-02T05:31:54;49.19;48.25;50.38;;
17594;Laerm;8916;47.086;15.920;2024-03-02T05:34:23;49.21;48.07;50.24;;
17594;Laerm;8916;47.086;15.920;2024-03-02T05:36:52;49.19;48.00;50.26;;
17594;Laerm;8916;47.086;15.920;2024-03-02T05:39:21;49.18;48.16;50.25;;
17594;Laerm;8916;47.086;15.920;2024-03-02T05:41:52;49.19;47.95;50.23;;
17594;Laerm;8916;47.086;15.920;2024-03-02T05:44:21;49.20;47.91;50.54;;
17594;Laerm;8916;47.086;15.920;2024-03-02T05:46:50;49.18;48.10;50.26;;
17594;Laerm;8916;47.086;15.920;2024-03-02T05:49:19;49.19;48.15;50.36;;
17594;Laerm;8916;47.086;15.920;2024-03-02T05:51:48;49.18;48.12;50.29;;
17594;Laerm;8916;47.086;15.920;2024-03-02T05:54:17;49.18;48.07;50.33;;
17594;Laerm;8916;47.086;15.920;2024-03-02T05:56:46;49.17;48.03;50.37;;
17594;Laerm;8916;47.086;15.920;2024-03-02T05:59:16;49.18;48.20;50.30;;
17594;Laerm;8916;47.086;15.920;2024-03-02T06:01:47;49.18;48.05;50.23;;
17594;Laerm;8916;47.086;15.920;2024-03-02T06:04:18;49.17;48.02;50.24;;
17594;Laerm;8916;47.086;15.920;2024-03-02T06:06:47;49.17;48.02;50.37;;
17594;Laerm;8916;47.086;15.920;2024-03-02T06:09:17;49.17;48.05;50.16;;
17594;Laerm;8916;47.086;15.920;2024-03-02T06:11:47;49.17;47.90;50.30;;
17594;Laerm;8916;47.086;15.920;2024-03-02T06:14:18;49.16;48.10;50.27;;
17594;Laerm;8916;47.086;15.920;2024-03-02T06:16:47;49.15;48.13;50.30;;
17594;Laerm;8916;47.086;15.920;2024-03-02T06:19:16;49.14;47.93;50.20;;
17594;Laerm;8916;47.086;15.920;2024-03-02T06:21:45;49.15;48.02;50.31;;
17594;Laerm;8916;47.086;15.920;2024-03-02T06:24:14;49.15;48.13;50.54;;
17594;Laerm;8916;47.086;15.920;2024-03-02T06:26:43;49.13;48.08;50.17;;
17594;Laerm;8916;47.086;15.920;2024-03-02T06:29:12;49.14;47.93;50.41;;
17594;Laerm;8916;47.086;15.920;2024-03-02T06:31:43;49.14;48.08;50.44;;
17594;Laerm;8916;47.086;15.920;2024-03-02T06:34:12;49.13;47.91;50.31;;
17594;Laerm;8916;47.086;15.920;2024-03-02T06:36:41;49.13;48.00;50.32;;
17594;Laerm;8916;47.086;15.920;2024-03-02T06:39:10;49.14;48.02;50.36;;
17594;Laerm;8916;47.086;15.920;2024-03-02T06:41:40;49.14;47.86;50.22;;
17594;Laerm;8916;47.086;15.920;2024-03-02T06:44:10;49.13;47.84;50.17;;
17594;Laerm;8916;47.086;15.920;2024-03-02T06:46:39;49.14;48.08;50.43;;
17594;Laerm;8916;47.086;15.920;2024-03-02T06:49:10;49.14;48.05;50.41;;
17594;Laerm;8916;47.086;15.920;2024-03-02T06:51:39;49.13;48.08;50.34;;
17594;Laerm;8916;47.086;15.920;2024-03-02T06:54:10;49.14;47.83;50.30;;
17594;Laerm;8916;47.086;15.920;2024-03-02T06:56:38;49.15;48.03;50.31;;
17594;Laerm;8916;47.086;15.920;2024-03-02T06:59:07;49.15;48.10;50.33;;
17594;Laerm;8916;47.086;15.920;2024-03-02T07:01:37;49.16;47.95;50.31;;
17594;Laerm;8916;47.086;15.920;2024-03-02T07:04:06;49.15;48.12;50.28;;
17594;Laerm;8916;47.086;15.920;2024-03-02T07:06:36;49.16;47.98;50.52;;
17594;Laerm;8916;47.086;15.920;2024-03-02T07:09:05;49.16;48.10;50.42;;
17594;Laerm;8916;47.086;15.920;2024-03-02T07:11:39;49.15;47.98;50.19;;
17594;Laerm;8916;47.086;15.920;2024-03-02T07:14:09;49.16;48.00;50.19;;
17594;Laerm;8916;47.086;15.920;2024-03-02T07:16:39;49.16;48.03;51.15;;
17594;Laerm;8916;47.086;15.920;2024-03-02T07:19:08;49.15;48.05;50.38;;
17594;Laerm;8916;47.086;15.920;2024-03-02T07:21:39;49.16;47.96;50.56;;
17594;Laerm;8916;47.086;15.920;2024-03-02T07:24:08;49.16;48.10;50.24;;
17594;Laerm;8916;47.086;15.920;2024-03-02T07:26:41;49.15;48.10;50.28;;
17594;Laerm;8916;47.086;15.920;2024-03-02T07:29:13;49.16;47.88;50.27;;
17594;Laerm;8916;47.086;15.920;2024-03-02T07:31:42;49.13;47.86;50.48;;
17594;Laerm;8916;47.086;15.920;2024-03-02T07:34:11;49.14;48.20;50.25;;
17594;Laerm;8916;47.086;15.920;2024-03-02T07:36:41;49.15;47.67;50.48;;
17594;Laerm;8916;47.086;15.920;2024-03-02T07:39:10;49.15;47.98;50.40;;
17594;Laerm;8916;47.086;15.920;2024-03-02T07:41:39;49.15;48.08;50.22;;
17594;Laerm;8916;47.086;15.920;2024-03-02T07:44:09;49.13;48.03;50.33;;
17594;Laerm;8916;47.086;15.920;2024-03-02T07:46:39;49.14;47.83;51.63;;
17594;Laerm;8916;47.086;15.920;2024-03-02T07:49:08;49.11;47.98;50.29;;
17594;Laerm;8916;47.086;15.920;2024-03-02T07:51:37;49.09;48.03;50.22;;
17594;Laerm;8916;47.086;15.920;2024-03-02T07:54:08;49.06;47.96;50.29;;
17594;Laerm;8916;47.086;15.920;2024-03-02T07:56:37;49.06;47.88;52.59;;
17594;Laerm;8916;47.086;15.920;2024-03-02T07:59:06;49.05;47.95;50.11;;
17594;Laerm;8916;47.086;15.920;2024-03-02T08:01:35;49.03;47.95;52.72;;
17594;Laerm;8916;47.086;15.920;2024-03-02T08:04:04;49.03;48.05;50.25;;
17594;Laerm;8916;47.086;15.920;2024-03-02T08:06:33;49.01;47.93;50.11;;
17594;Laerm;8916;47.086;15.920;2024-03-02T08:09:02;49.03;47.91;50.27;;
17594;Laerm;8916;47.086;15.920;2024-03-02T08:11:38;49.03;47.83;50.26;;
17594;Laerm;8916;47.086;15.920;2024-03-02T08:14:07;49.01;47.88;50.30;;
17594;Laerm;8916;47.086;15.920;2024-03-02T08:16:36;49.02;47.95;50.17;;
17594;Laerm;8916;47.086;15.920;2024-03-02T08:19:05;49.02;47.93;50.21;;
17594;Laerm;8916;47.086;15.920;2024-03-02T08:21:34;49.02;47.76;50.09;;
17594;Laerm;8916;47.086;15.920;2024-03-02T08:24:04;49.03;47.65;50.24;;
17594;Laerm;8916;47.086;15.920;2024-03-02T08:26:34;49.02;47.91;50.28;;
17594;Laerm;8916;47.086;15.920;2024-03-02T08:29:04;49.01;47.99;50.16;;
17594;Laerm;8916;47.086;15.920;2024-03-02T08:31:33;49.00;47.91;50.36;;
17594;Laerm;8916;47.086;15.920;2024-03-02T08:34:05;48.96;47.84;50.03;;
17594;Laerm;8916;47.086;15.920;2024-03-02T08:36:34;48.97;47.96;50.23;;
17594;Laerm;8916;47.086;15.920;2024-03-02T08:39:03;48.96;47.84;50.02;;
17594;Laerm;8916;47.086;15.920;2024-03-02T08:41:35;48.96;47.81;50.15;;
17594;Laerm;8916;47.086;15.920;2024-03-02T08:44:06;48.97;47.90;50.24;;
17594;Laerm;8916;47.086;15.920;2024-03-02T08:46:35;48.96;47.76;50.27;;
17594;Laerm;8916;47.086;15.920;2024-03-02T08:49:04;48.97;47.88;50.13;;
17594;Laerm;8916;47.086;15.920;2024-03-02T08:51:34;48.97;47.98;50.08;;
17594;Laerm;8916;47.086;15.920;2024-03-02T08:54:03;48.94;47.72;50.17;;
17594;Laerm;8916;47.086;15.920;2024-03-02T08:56:32;48.93;47.88;50.06;;
17594;Laerm;8916;47.086;15.920;2024-03-02T08:59:04;48.93;47.90;50.09;;
17594;Laerm;8916;47.086;15.920;2024-03-02T09:01:34;48.93;47.86;50.07;;
17594;Laerm;8916;47.086;15.920;2024-03-02T09:04:03;48.93;47.76;50.14;;
17594;Laerm;8916;47.086;15.920;2024-03-02T09:06:32;48.93;47.72;50.16;;
17594;Laerm;8916;47.086;15.920;2024-03-02T09:09:02;48.92;47.93;50.74;;
17594;Laerm;8916;47.086;15.920;2024-03-02T09:11:32;48.91;47.74;50.06;;
17594;Laerm;8916;47.086;15.920;2024-03-02T09:14:02;48.90;47.81;52.98;;
17594;Laerm;8916;47.086;15.920;2024-03-02T09:16:32;48.88;47.84;50.02;;
17594;Laerm;8916;47.086;15.920;2024-03-02T09:19:01;48.87;47.76;53.52;;
17594;Laerm;8916;47.086;15.920;2024-03-02T09:21:30;48.86;47.83;50.05;;
17594;Laerm;8916;47.086;15.920;2024-03-02T09:23:59;48.85;47.79;50.05;;
17594;Laerm;8916;47.086;15.920;2024-03-02T09:26:30;48.83;47.61;51.59;;
17594;Laerm;8916;47.086;15.920;2024-03-02T09:28:59;48.83;47.34;49.93;;
17594;Laerm;8916;47.086;15.920;2024-03-02T09:31:28;48.84;47.67;52.17;;
17594;Laerm;8916;47.086;15.920;2024-03-02T09:33:58;48.85;47.74;52.22;;
17594;Laerm;8916;47.086;15.920;2024-03-02T09:36:27;48.84;47.46;52.75;;
17594;Laerm;8916;47.086;15.920;2024-03-02T09:38:56;48.83;47.53;50.08;;
17594;Laerm;8916;47.086;15.920;2024-03-02T09:41:25;48.86;47.57;49.95;;
17594;Laerm;8916;47.086;15.920;2024-03-02T09:43:55;48.84;47.81;50.00;;
17594;Laerm;8916;47.086;15.920;2024-03-02T09:46:25;48.85;47.68;50.02;;
17594;Laerm;8916;47.086;15.920;2024-03-02T09:48:54;48.84;47.79;52.47;;
17594;Laerm;8916;47.086;15.920;2024-03-02T09:51:26;48.83;47.52;49.92;;
17594;Laerm;8916;47.086;15.920;2024-03-02T09:53:55;48.83;47.70;50.07;;
17594;Laerm;8916;47.086;15.920;2024-03-02T09:56:39;48.84;47.68;50.01;;
17594;Laerm;8916;47.086;15.920;2024-03-02T09:59:09;48.84;47.83;50.22;;
17594;Laerm;8916;47.086;15.920;2024-03-02T10:01:38;48.84;47.77;50.02;;
17594;Laerm;8916;47.086;15.920;2024-03-02T10:04:08;48.85;47.72;50.14;;
17594;Laerm;8916;47.086;15.920;2024-03-02T10:06:38;48.85;47.81;49.94;;
17594;Laerm;8916;47.086;15.920;2024-03-02T10:09:07;48.84;47.76;49.95;;
17594;Laerm;8916;47.086;15.920;2024-03-02T10:11:37;48.82;47.54;49.92;;
17594;Laerm;8916;47.086;15.920;2024-03-02T10:14:07;48.82;47.72;50.04;;
17594;Laerm;8916;47.086;15.920;2024-03-02T10:16:39;48.81;47.79;50.07;;
17594;Laerm;8916;47.086;15.920;2024-03-02T10:19:18;48.80;47.59;49.90;;
17594;Laerm;8916;47.086;15.920;2024-03-02T10:21:51;48.81;47.72;50.23;;
17594;Laerm;8916;47.086;15.920;2024-03-02T10:24:22;48.82;47.61;50.13;;
17594;Laerm;8916;47.086;15.920;2024-03-02T10:26:51;48.79;47.74;49.89;;
17594;Laerm;8916;47.086;15.920;2024-03-02T10:29:20;48.80;47.77;53.89;;
17594;Laerm;8916;47.086;15.920;2024-03-02T10:31:49;48.78;47.55;49.83;;
17594;Laerm;8916;47.086;15.920;2024-03-02T10:34:18;48.77;47.59;50.08;;
17594;Laerm;8916;47.086;15.920;2024-03-02T10:36:49;48.79;47.73;49.97;;
17594;Laerm;8916;47.086;15.920;2024-03-02T10:39:19;48.79;47.72;49.89;;
17594;Laerm;8916;47.086;15.920;2024-03-02T10:41:49;48.78;47.57;51.98;;
17594;Laerm;8916;47.086;15.920;2024-03-02T10:44:22;48.79;47.50;49.97;;
17594;Laerm;8916;47.086;15.920;2024-03-02T10:46:52;48.80;47.74;53.50;;
17594;Laerm;8916;47.086;15.920;2024-03-02T10:49:23;48.81;47.67;49.93;;
17594;Laerm;8916;47.086;15.920;2024-03-02T10:51:54;48.83;47.77;50.19;;
17594;Laerm;8916;47.086;15.920;2024-03-02T10:54:24;48.84;47.58;49.97;;
17594;Laerm;8916;47.086;15.920;2024-03-02T10:56:59;48.83;47.67;52.74;;
17594;Laerm;8916;47.086;15.920;2024-03-02T10:59:33;48.80;47.77;50.05;;
17594;Laerm;8916;47.086;15.920;2024-03-02T11:02:03;48.81;47.63;50.14;;
17594;Laerm;8916;47.086;15.920;2024-03-02T11:04:36;48.82;47.77;50.25;;
17594;Laerm;8916;47.086;15.920;2024-03-02T11:07:09;48.80;47.55;53.14;;
17594;Laerm;8916;47.086;15.920;2024-03-02T11:09:44;48.80;47.59;54.23;;
17594;Laerm;8916;47.086;15.920;2024-03-02T11:12:23;48.79;47.67;50.13;;
17594;Laerm;8916;47.086;15.920;2024-03-02T11:14:56;48.78;47.77;49.98;;
17594;Laerm;8916;47.086;15.920;2024-03-02T11:17:25;48.80;47.59;53.90;;
17594;Laerm;8916;47.086;15.920;2024-03-02T11:19:55;48.79;47.48;49.98;;
17594;Laerm;8916;47.086;15.920;2024-03-02T11:22:26;48.77;47.55;49.93;;
17594;Laerm;8916;47.086;15.920;2024-03-02T11:24:55;48.78;47.65;50.58;;
17594;Laerm;8916;47.086;15.920;2024-03-02T11:28:05;48.79;47.74;49.96;;
17594;Laerm;8916;47.086;15.920;2024-03-02T11:30:50;48.80;47.76;53.42;;
17594;Laerm;8916;47.086;15.920;2024-03-02T11:33:26;48.80;47.65;50.56;;
17594;Laerm;8916;47.086;15.920;2024-03-02T11:36:01;48.79;47.59;50.12;;
17594;Laerm;8916;47.086;15.920;2024-03-02T11:38:33;48.79;47.46;54.37;;
17594;Laerm;8916;47.086;15.920;2024-03-02T11:41:06;48.79;47.55;50.07;;
17594;Laerm;8916;47.086;15.920;2024-03-02T11:43:40;48.78;47.77;51.20;;
17594;Laerm;8916;47.086;15.920;2024-03-02T11:46:12;48.82;47.65;60.16;;
17594;Laerm;8916;47.086;15.920;2024-03-02T11:48:41;59.68;47.70;61.74;;
17594;Laerm;8916;47.086;15.920;2024-03-02T11:51:11;57.79;47.52;61.64;;
17594;Laerm;8916;47.086;15.920;2024-03-02T11:53:42;57.97;47.81;62.07;;
17594;Laerm;8916;47.086;15.920;2024-03-02T11:56:12;59.72;47.79;61.99;;
17594;Laerm;8916;47.086;15.920;2024-03-02T11:58:43;58.89;47.54;61.81;;
17594;Laerm;8916;47.086;15.920;2024-03-02T12:01:15;58.63;47.61;62.15;;
17594;Laerm;8916;47.086;15.920;2024-03-02T12:03:45;59.85;47.77;61.74;;
17594;Laerm;8916;47.086;15.920;2024-03-02T12:06:17;58.72;47.61;62.01;;
17594;Laerm;8916;47.086;15.920;2024-03-02T12:08:52;59.71;47.70;62.05;;
17594;Laerm;8916;47.086;15.920;2024-03-02T12:11:22;59.44;47.57;62.61;;
17594;Laerm;8916;47.086;15.920;2024-03-02T12:13:52;59.05;47.57;62.30;;
17594;Laerm;8916;47.086;15.920;2024-03-02T12:16:24;60.62;47.96;62.64;;
17594;Laerm;8916;47.086;15.920;2024-03-02T12:18:54;60.79;47.95;62.57;;
17594;Laerm;8916;47.086;15.920;2024-03-02T12:21:24;61.27;47.83;63.56;;
17594;Laerm;8916;47.086;15.920;2024-03-02T12:23:54;60.82;47.63;63.51;;
17594;Laerm;8916;47.086;15.920;2024-03-02T12:26:24;58.94;47.44;63.00;;
17594;Laerm;8916;47.086;15.920;2024-03-02T12:28:53;58.01;47.63;63.50;;
17594;Laerm;8916;47.086;15.920;2024-03-02T12:31:22;59.59;47.42;63.32;;
17594;Laerm;8916;47.086;15.920;2024-03-02T12:33:52;59.45;47.74;62.92;;
17594;Laerm;8916;47.086;15.920;2024-03-02T12:36:22;60.35;47.96;62.85;;
17594;Laerm;8916;47.086;15.920;2024-03-02T12:38:54;59.76;48.00;62.87;;
17594;Laerm;8916;47.086;15.920;2024-03-02T12:41:23;60.76;47.81;63.17;;
17594;Laerm;8916;47.086;15.920;2024-03-02T12:43:55;61.52;47.90;63.35;;
17594;Laerm;8916;47.086;15.920;2024-03-02T12:46:26;61.54;47.88;63.35;;
17594;Laerm;8916;47.086;15.920;2024-03-02T12:48:55;59.06;47.70;63.14;;
17594;Laerm;8916;47.086;15.920;2024-03-02T12:51:24;62.16;47.95;63.86;;
17594;Laerm;8916;47.086;15.920;2024-03-02T12:53:55;61.83;47.68;63.76;;
17594;Laerm;8916;47.086;15.920;2024-03-02T12:56:25;58.72;47.81;63.56;;
17594;Laerm;8916;47.086;15.920;2024-03-02T12:58:54;59.81;47.95;63.09;;
17594;Laerm;8916;47.086;15.920;2024-03-02T13:01:23;60.27;47.72;63.11;;
17594;Laerm;8916;47.086;15.920;2024-03-02T13:03:54;60.57;47.76;63.45;;
17594;Laerm;8916;47.086;15.920;2024-03-02T13:06:25;48.77;47.68;57.84;;
17594;Laerm;8916;47.086;15.920;2024-03-02T13:08:57;49.02;47.55;56.77;;
17594;Laerm;8916;47.086;15.920;2024-03-02T13:11:26;48.80;47.48;55.25;;
17594;Laerm;8916;47.086;15.920;2024-03-02T13:13:55;48.79;47.67;55.01;;
17594;Laerm;8916;47.086;15.920;2024-03-02T13:16:24;48.80;47.55;53.90;;
17594;Laerm;8916;47.086;15.920;2024-03-02T13:19:00;48.81;47.77;52.86;;
17594;Laerm;8916;47.086;15.920;2024-03-02T13:21:30;48.81;47.38;55.13;;
17594;Laerm;8916;47.086;15.920;2024-03-02T13:24:01;48.83;47.65;52.34;;
17594;Laerm;8916;47.086;15.920;2024-03-02T13:26:31;48.78;47.72;55.59;;
17594;Laerm;8916;47.086;15.920;2024-03-02T13:29:00;48.74;47.68;54.83;;
17594;Laerm;8916;47.086;15.920;2024-03-02T13:31:29;48.72;47.52;51.82;;
17594;Laerm;8916;47.086;15.920;2024-03-02T13:33:58;49.26;47.81;54.50;;
17594;Laerm;8916;47.086;15.920;2024-03-02T13:36:27;49.26;47.74;54.42;;
17594;Laerm;8916;47.086;15.920;2024-03-02T13:38:56;49.50;47.63;58.54;;
17594;Laerm;8916;47.086;15.920;2024-03-02T13:41:27;49.29;47.72;56.50;;
17594;Laerm;8916;47.086;15.920;2024-03-02T13:43:56;49.01;47.63;56.87;;
17594;Laerm;8916;47.086;15.920;2024-03-02T13:46:28;49.46;47.80;55.79;;
17594;Laerm;8916;47.086;15.920;2024-03-02T13:48:57;49.05;47.44;52.19;;
17594;Laerm;8916;47.086;15.920;2024-03-02T13:51:27;49.42;47.74;53.22;;
17594;Laerm;8916;47.086;15.920;2024-03-02T13:53:56;48.88;47.24;55.41;;
17594;Laerm;8916;47.086;15.920;2024-03-02T13:56:26;49.69;47.38;55.48;;
17594;Laerm;8916;47.086;15.920;2024-03-02T13:58:55;50.18;47.38;56.42;;
17594;Laerm;8916;47.086;15.920;2024-03-02T14:01:25;50.13;47.65;59.23;;